Time;durP1;ratioP1;P1;durP2;ratioP2;P2;SDS_P1;SDS_P2;PMS_P1;PMS_P2;Temp;Humidity;BMP_temperature;BMP_pressure;BME280_temperature;BME280_humidity;BME280_pressure;Samples;Min_cycle;Max_cycle;Signal;HPM_P1;HPM_P2
2021/01/06 00:01:52;;;;;;;25.13;12.18;;;;;;;;;;5084031;28;20024;-47
2021/01/06 00:04:18;;;;;;;23.38;12.48;;;;;;;;;;5084505;28;20044;-50
2021/01/06 00:06:45;;;;;;;27.23;13.52;;;;;;;;;;5084194;28;20502;-48
2021/01/06 00:09:11;;;;;;;31.27;13.82;;;;;;;;;;5084846;28;20028;-51
2021/01/06 00:11:38;;;;;;;30.05;13.35;;;;;;;;;;5084177;28;20429;-47
2021/01/06 00:14:06;;;;;;;26.27;12.32;;;;;;;;;;5084572;28;20024;-48
2021/01/06 00:16:32;;;;;;;39.00;14.90;;;;;;;;;;5084489;28;20065;-47
2021/01/06 00:18:59;;;;;;;40.63;15.23;;;;;;;;;;5083874;28;20024;-50
2021/01/06 00:21:25;;;;;;;31.70;14.35;;;;;;;;;;5084691;28;20024;-47
2021/01/06 00:23:51;;;;;;;42.50;16.50;;;;;;;;;;5084909;28;20099;-50
2021/01/06 00:26:17;;;;;;;49.38;18.15;;;;;;;;;;5084620;28;20028;-48
2021/01/06 00:28:44;;;;;;;45.78;19.00;;;;;;;;;;5084112;28;20034;-47
2021/01/06 00:31:10;;;;;;;47.03;18.17;;;;;;;;;;5084463;28;20432;-49
2021/01/06 00:33:37;;;;;;;52.50;21.08;;;;;;;;;;5082998;28;20028;-49
2021/01/06 00:36:12;;;;;;;56.35;20.23;;;;;;;;;;5084896;28;20027;-48
2021/01/06 00:38:40;;;;;;;58.67;20.95;;;;;;;;;;5083928;28;20024;-46
2021/01/06 00:41:06;;;;;;;48.10;19.23;;;;;;;;;;5084658;28;20525;-50
2021/01/06 00:43:32;;;;;;;42.55;17.45;;;;;;;;;;5084034;28;20030;-47
2021/01/06 00:45:58;;;;;;;45.65;18.20;;;;;;;;;;5084113;28;20028;-48
2021/01/06 00:48:25;;;;;;;60.00;21.70;;;;;;;;;;5084252;28;20023;-46
2021/01/06 00:50:51;;;;;;;56.72;20.40;;;;;;;;;;5084706;28;20390;-50
2021/01/06 00:53:22;;;;;;;89.55;28.73;;;;;;;;;;5084145;28;20024;-47
2021/01/06 00:55:49;;;;;;;63.70;24.40;;;;;;;;;;5083877;28;20032;-48
2021/01/06 00:58:15;;;;;;;52.20;19.88;;;;;;;;;;5083895;28;20463;-47
2021/01/06 01:00:41;;;;;;;46.85;18.55;;;;;;;;;;5083792;28;20555;-50
2021/01/06 01:03:07;;;;;;;39.40;15.48;;;;;;;;;;5083356;28;20020;-50
2021/01/06 01:05:34;;;;;;;32.13;14.15;;;;;;;;;;5083875;28;20020;-49
2021/01/06 01:08:00;;;;;;;28.60;12.43;;;;;;;;;;5083524;28;20491;-48
2021/01/06 01:10:29;;;;;;;25.58;12.50;;;;;;;;;;5084038;28;20032;-47
2021/01/06 01:12:55;;;;;;;25.65;12.65;;;;;;;;;;5083405;28;20169;-48
2021/01/06 01:15:26;;;;;;;23.63;10.52;;;;;;;;;;5088482;28;20066;-48
2021/01/06 01:17:52;;;;;;;23.85;11.48;;;;;;;;;;5088029;28;20034;-48
2021/01/06 01:20:19;;;;;;;23.48;11.43;;;;;;;;;;5086306;28;20115;-47
2021/01/06 01:22:45;;;;;;;27.08;13.05;;;;;;;;;;5087438;28;20035;-51
2021/01/06 01:25:14;;;;;;;24.73;11.95;;;;;;;;;;5087844;28;20501;-50
2021/01/06 01:27:41;;;;;;;23.38;11.43;;;;;;;;;;5087337;28;20016;-49
2021/01/06 01:30:08;;;;;;;26.17;12.10;;;;;;;;;;5087517;28;20020;-46
2021/01/06 01:32:34;;;;;;;29.10;13.07;;;;;;;;;;5087281;28;20028;-47
2021/01/06 01:35:00;;;;;;;29.75;15.48;;;;;;;;;;5087471;28;20247;-47
2021/01/06 01:37:27;;;;;;;30.80;15.40;;;;;;;;;;5087518;28;20810;-47
2021/01/06 01:39:54;;;;;;;25.25;12.27;;;;;;;;;;5087818;28;20038;-49
2021/01/06 01:42:20;;;;;;;24.70;12.60;;;;;;;;;;5087943;28;20070;-48
2021/01/06 01:45:00;;;;;;;24.08;11.63;;;;;;;;;;5087049;28;20051;-47
2021/01/06 01:47:34;;;;;;;25.00;12.82;;;;;;;;;;5087273;28;20059;-49
2021/01/06 01:50:04;;;;;;;24.02;12.02;;;;;;;;;;5087104;28;20035;-46
2021/01/06 01:52:33;;;;;;;24.73;12.57;;;;;;;;;;5087081;28;20035;-48
2021/01/06 01:55:01;;;;;;;24.60;12.25;;;;;;;;;;5086853;28;20524;-47
2021/01/06 01:57:36;;;;;;;26.80;13.23;;;;;;;;;;5087333;28;20039;-47
2021/01/06 02:00:16;;;;;;;28.55;15.07;;;;;;;;;;5087175;28;20489;-47
2021/01/06 02:02:48;;;;;;;31.80;15.30;;;;;;;;;;5085981;28;20103;-49
2021/01/06 02:05:27;;;;;;;29.63;14.63;;;;;;;;;;5086921;28;20028;-47
2021/01/06 02:07:56;;;;;;;28.65;15.15;;;;;;;;;;5087177;28;20536;-48
2021/01/06 02:10:29;;;;;;;23.75;12.10;;;;;;;;;;5087556;28;20027;-47
2021/01/06 02:12:59;;;;;;;26.95;13.43;;;;;;;;;;5086574;28;20556;-46
2021/01/06 02:15:25;;;;;;;21.70;11.15;;;;;;;;;;5087247;28;20020;-48
2021/01/06 02:17:51;;;;;;;23.83;11.70;;;;;;;;;;5086869;28;20398;-47
2021/01/06 02:20:19;;;;;;;24.25;12.23;;;;;;;;;;5086514;28;20107;-48
2021/01/06 02:22:46;;;;;;;23.35;11.70;;;;;;;;;;5086401;28;20401;-48
2021/01/06 02:25:14;;;;;;;25.73;11.93;;;;;;;;;;5085804;28;20024;-46
2021/01/06 02:27:40;;;;;;;24.00;12.38;;;;;;;;;;5086195;28;20025;-51
2021/01/06 02:30:07;;;;;;;21.80;11.25;;;;;;;;;;5086546;28;20544;-47
2021/01/06 02:32:34;;;;;;;24.55;11.32;;;;;;;;;;5086050;28;20506;-48
2021/01/06 02:35:01;;;;;;;20.52;9.98;;;;;;;;;;5086232;28;20024;-45
2021/01/06 02:37:28;;;;;;;25.83;12.63;;;;;;;;;;5086546;28;20064;-46
2021/01/06 02:39:54;;;;;;;28.42;13.38;;;;;;;;;;5086647;28;20202;-49
2021/01/06 02:42:20;;;;;;;28.42;13.68;;;;;;;;;;5086658;28;20059;-47
2021/01/06 02:44:46;;;;;;;26.65;12.15;;;;;;;;;;5085863;28;20030;-51
2021/01/06 02:47:13;;;;;;;29.08;14.63;;;;;;;;;;5086128;28;20031;-46
2021/01/06 02:49:41;;;;;;;27.45;13.18;;;;;;;;;;5085664;28;20342;-47
2021/01/06 02:52:13;;;;;;;35.33;16.63;;;;;;;;;;5086087;28;20032;-50
2021/01/06 02:54:43;;;;;;;33.80;15.57;;;;;;;;;;5085792;28;20445;-46
2021/01/06 02:57:09;;;;;;;29.90;13.85;;;;;;;;;;5085936;28;20039;-47
2021/01/06 02:59:41;;;;;;;27.67;13.57;;;;;;;;;;5085508;28;20028;-51
2021/01/06 03:02:08;;;;;;;27.08;12.70;;;;;;;;;;5085484;28;20032;-46
2021/01/06 03:04:37;;;;;;;23.58;12.05;;;;;;;;;;5085495;28;20027;-46
2021/01/06 03:07:05;;;;;;;27.88;13.95;;;;;;;;;;5085575;28;20027;-49
2021/01/06 03:09:35;;;;;;;32.67;15.20;;;;;;;;;;5085552;28;20059;-47
2021/01/06 03:12:05;;;;;;;29.65;14.75;;;;;;;;;;5085817;28;20433;-47
2021/01/06 03:14:32;;;;;;;30.92;14.52;;;;;;;;;;5085419;28;20085;-48
2021/01/06 03:16:58;;;;;;;27.33;12.35;;;;;;;;;;5085022;28;20031;-48
2021/01/06 03:19:26;;;;;;;28.73;12.63;;;;;;;;;;5085601;28;20032;-50
2021/01/06 03:21:54;;;;;;;28.95;14.02;;;;;;;;;;5085974;28;20062;-49
2021/01/06 03:24:23;;;;;;;27.67;12.88;;;;;;;;;;5084468;28;20024;-47
2021/01/06 03:26:50;;;;;;;30.10;14.13;;;;;;;;;;5085520;28;20110;-51
2021/01/06 03:29:17;;;;;;;28.63;13.80;;;;;;;;;;5085323;28;20566;-51
2021/01/06 03:31:47;;;;;;;29.92;13.88;;;;;;;;;;5083326;28;20042;-50
2021/01/06 03:34:22;;;;;;;34.05;15.15;;;;;;;;;;5084938;28;20119;-50
2021/01/06 03:36:57;;;;;;;28.27;14.25;;;;;;;;;;5084882;28;20040;-49
2021/01/06 03:39:30;;;;;;;30.17;14.75;;;;;;;;;;5085685;28;20097;-46
2021/01/06 03:41:56;;;;;;;27.15;12.50;;;;;;;;;;5084848;28;20043;-47
2021/01/06 03:44:23;;;;;;;29.10;14.88;;;;;;;;;;5085437;28;20031;-49
2021/01/06 03:47:05;;;;;;;29.17;13.43;;;;;;;;;;5085196;28;20028;-48
2021/01/06 03:49:41;;;;;;;23.92;11.15;;;;;;;;;;5084819;28;20024;-49
2021/01/06 03:52:13;;;;;;;30.40;13.70;;;;;;;;;;5084997;28;20567;-49
2021/01/06 03:54:58;;;;;;;26.90;12.40;;;;;;;;;;5084446;28;20035;-47
2021/01/06 03:57:25;;;;;;;30.55;13.75;;;;;;;;;;5085593;28;20567;-47
2021/01/06 03:59:52;;;;;;;26.13;12.82;;;;;;;;;;5085012;28;20032;-48
2021/01/06 04:02:25;;;;;;;23.77;11.85;;;;;;;;;;5084116;28;20498;-47
2021/01/06 04:04:54;;;;;;;25.63;12.70;;;;;;;;;;5084676;28;20032;-47
2021/01/06 04:07:46;;;;;;;27.48;13.00;;;;;;;;;;5085319;28;20041;-50
2021/01/06 04:10:18;;;;;;;26.27;11.98;;;;;;;;;;5084166;28;20040;-48
2021/01/06 04:12:44;;;;;;;27.25;12.43;;;;;;;;;;5084179;28;20290;-49
2021/01/06 04:15:11;;;;;;;25.17;12.40;;;;;;;;;;5084722;28;20030;-48
2021/01/06 04:17:38;;;;;;;25.38;12.68;;;;;;;;;;5084326;28;20032;-47
2021/01/06 04:20:07;;;;;;;26.02;12.55;;;;;;;;;;5084310;28;20035;-46
2021/01/06 04:22:51;;;;;;;30.08;15.38;;;;;;;;;;5084240;28;20101;-49
2021/01/06 04:25:17;;;;;;;26.73;12.85;;;;;;;;;;5084466;28;20024;-49
2021/01/06 04:27:43;;;;;;;25.50;12.07;;;;;;;;;;5084333;28;20084;-50
2021/01/06 04:30:11;;;;;;;24.05;11.00;;;;;;;;;;5084325;28;20020;-47
2021/01/06 04:32:38;;;;;;;23.13;11.25;;;;;;;;;;5082464;28;20409;-48
2021/01/06 04:35:06;;;;;;;23.88;11.18;;;;;;;;;;5084675;28;20030;-48
2021/01/06 04:37:32;;;;;;;20.90;10.05;;;;;;;;;;5084130;28;20028;-50
2021/01/06 04:39:58;;;;;;;26.23;11.85;;;;;;;;;;5084007;28;20028;-50
2021/01/06 04:42:24;;;;;;;21.02;10.25;;;;;;;;;;5084159;28;20496;-49
2021/01/06 04:45:10;;;;;;;23.73;11.05;;;;;;;;;;5084590;28;20016;-51
2021/01/06 04:47:51;;;;;;;24.63;12.38;;;;;;;;;;5083807;28;20031;-49
2021/01/06 04:50:36;;;;;;;28.75;14.63;;;;;;;;;;5088413;28;20248;-51
2021/01/06 04:53:02;;;;;;;28.60;13.15;;;;;;;;;;5088194;28;20088;-48
2021/01/06 04:55:34;;;;;;;25.58;12.60;;;;;;;;;;5088234;28;20024;-47
2021/01/06 04:58:19;;;;;;;27.45;12.27;;;;;;;;;;5087640;28;20032;-46
2021/01/06 05:00:51;;;;;;;24.10;11.35;;;;;;;;;;5089029;28;20035;-47
2021/01/06 05:03:25;;;;;;;28.00;12.88;;;;;;;;;;5088852;28;20056;-47
2021/01/06 05:05:54;;;;;;;24.42;12.35;;;;;;;;;;5088639;28;20036;-49
2021/01/06 05:08:39;;;;;;;28.42;13.30;;;;;;;;;;5089653;28;20020;-48
2021/01/06 05:11:05;;;;;;;33.70;15.35;;;;;;;;;;5080307;28;20036;-48
2021/01/06 05:13:31;;;;;;;27.95;12.52;;;;;;;;;;5088927;28;20058;-49
2021/01/06 05:15:59;;;;;;;25.23;11.57;;;;;;;;;;5089024;28;20028;-47
2021/01/06 05:18:26;;;;;;;31.60;14.65;;;;;;;;;;5089327;28;20020;-50
2021/01/06 05:20:52;;;;;;;30.00;13.32;;;;;;;;;;5089859;28;20032;-49
2021/01/06 05:23:21;;;;;;;30.77;14.48;;;;;;;;;;5089298;28;20051;-50
2021/01/06 05:25:48;;;;;;;36.72;17.60;;;;;;;;;;5089073;28;20028;-49
2021/01/06 05:28:18;;;;;;;43.10;18.63;;;;;;;;;;5089703;28;20093;-50
2021/01/06 05:30:46;;;;;;;42.20;20.30;;;;;;;;;;5088603;28;20042;-47
2021/01/06 05:33:12;;;;;;;40.95;18.35;;;;;;;;;;5089077;28;20070;-49
2021/01/06 05:35:44;;;;;;;38.08;17.58;;;;;;;;;;5088449;28;20050;-48
2021/01/06 05:38:10;;;;;;;40.58;17.38;;;;;;;;;;5089145;28;20081;-50
2021/01/06 05:40:37;;;;;;;36.28;16.42;;;;;;;;;;5086470;28;20085;-46
2021/01/06 05:43:06;;;;;;;30.98;13.77;;;;;;;;;;5087253;28;20077;-51
2021/01/06 05:45:54;;;;;;;31.23;14.18;;;;;;;;;;5087150;28;20493;-46
2021/01/06 05:48:23;;;;;;;33.30;14.27;;;;;;;;;;5087976;28;20099;-46
2021/01/06 05:50:58;;;;;;;32.45;15.45;;;;;;;;;;5087026;28;20032;-48
2021/01/06 05:53:33;;;;;;;29.17;14.10;;;;;;;;;;5087169;28;20597;-47
2021/01/06 05:56:02;;;;;;;28.20;13.15;;;;;;;;;;5086564;28;20451;-49
2021/01/06 05:58:29;;;;;;;29.15;13.05;;;;;;;;;;5068814;28;20045;-50
2021/01/06 06:01:17;;;;;;;19.92;10.32;;;;;;;;;;5085087;28;20108;-46
2021/01/06 06:03:46;;;;;;;21.77;9.52;;;;;;;;;;5085944;28;20258;-46
2021/01/06 06:06:30;;;;;;;20.73;9.65;;;;;;;;;;5088613;28;20039;-46
2021/01/06 06:09:05;;;;;;;19.30;8.38;;;;;;;;;;5086545;28;20375;-48
2021/01/06 06:11:51;;;;;;;18.70;8.30;;;;;;;;;;5086804;28;20144;-46
2021/01/06 06:14:36;;;;;;;33.95;13.13;;;;;;;;;;5086611;28;20047;-49
2021/01/06 06:17:11;;;;;;;31.88;11.40;;;;;;;;;;5086651;28;20043;-46
2021/01/06 06:19:40;;;;;;;29.10;11.15;;;;;;;;;;5086379;28;20347;-49
2021/01/06 06:22:19;;;;;;;24.30;9.50;;;;;;;;;;5086809;28;20034;-47
2021/01/06 06:24:48;;;;;;;22.15;9.13;;;;;;;;;;5086186;28;20346;-46
2021/01/06 06:27:15;;;;;;;25.48;11.23;;;;;;;;;;5086642;28;20028;-49
2021/01/06 06:30:03;;;;;;;22.23;10.32;;;;;;;;;;5086218;28;20048;-46
2021/01/06 06:32:30;;;;;;;23.70;10.57;;;;;;;;;;5086516;28;20043;-47
2021/01/06 06:35:18;;;;;;;23.33;9.85;;;;;;;;;;5086694;28;20036;-47
2021/01/06 06:38:10;;;;;;;28.30;12.13;;;;;;;;;;5085673;28;20028;-47
2021/01/06 06:40:48;;;;;;;29.02;12.43;;;;;;;;;;5085527;28;20174;-47
2021/01/06 06:43:25;;;;;;;41.40;17.05;;;;;;;;;;5085915;28;20545;-50
2021/01/06 06:46:10;;;;;;;41.08;17.40;;;;;;;;;;5086337;28;20024;-49
2021/01/06 06:48:37;;;;;;;31.30;14.38;;;;;;;;;;5085823;28;20546;-49
2021/01/06 06:51:07;;;;;;;30.80;13.65;;;;;;;;;;5086043;28;20406;-48
2021/01/06 06:53:53;;;;;;;26.70;12.02;;;;;;;;;;5085927;28;20414;-49
2021/01/06 06:56:39;;;;;;;25.48;11.88;;;;;;;;;;5086676;28;20065;-50
2021/01/06 06:59:09;;;;;;;23.95;10.90;;;;;;;;;;5085406;28;20032;-48
2021/01/06 07:01:40;;;;;;;22.42;10.18;;;;;;;;;;5085852;28;20023;-48
2021/01/06 07:04:27;;;;;;;22.77;10.93;;;;;;;;;;5085255;28;20024;-47
2021/01/06 07:06:58;;;;;;;22.15;10.60;;;;;;;;;;5085409;28;20039;-47
2021/01/06 07:09:33;;;;;;;27.77;13.82;;;;;;;;;;5086315;28;20064;-46
2021/01/06 07:12:01;;;;;;;33.85;14.55;;;;;;;;;;5084937;28;20032;-47
2021/01/06 07:14:29;;;;;;;32.80;15.07;;;;;;;;;;5085329;28;20111;-46
2021/01/06 07:16:56;;;;;;;32.75;13.35;;;;;;;;;;5085589;28;20038;-47
2021/01/06 07:19:22;;;;;;;26.63;12.80;;;;;;;;;;5086296;28;20183;-49
2021/01/06 07:21:57;;;;;;;26.85;12.75;;;;;;;;;;5085258;28;20027;-51
2021/01/06 07:24:25;;;;;;;20.60;10.52;;;;;;;;;;5085946;28;20032;-48
2021/01/06 07:27:02;;;;;;;18.70;9.98;;;;;;;;;;5085000;28;20073;-48
2021/01/06 07:29:33;;;;;;;18.83;9.57;;;;;;;;;;5085206;28;20066;-47
2021/01/06 07:32:05;;;;;;;20.38;10.10;;;;;;;;;;5084910;28;20401;-49
2021/01/06 07:34:37;;;;;;;21.33;10.27;;;;;;;;;;5085100;28;20020;-48
2021/01/06 07:37:04;;;;;;;19.08;8.73;;;;;;;;;;5085166;28;20081;-48
2021/01/06 07:39:31;;;;;;;18.67;9.27;;;;;;;;;;5085236;28;20056;-49
2021/01/06 07:42:02;;;;;;;21.25;10.20;;;;;;;;;;5084956;28;20036;-46
2021/01/06 07:44:34;;;;;;;21.08;10.20;;;;;;;;;;5084937;28;20051;-50
2021/01/06 07:47:20;;;;;;;26.95;12.27;;;;;;;;;;5084676;28;20512;-47
2021/01/06 07:49:46;;;;;;;24.08;11.73;;;;;;;;;;5084768;28;20054;-47
2021/01/06 07:52:31;;;;;;;51.83;21.17;;;;;;;;;;5084942;28;20463;-47
2021/01/06 07:54:57;;;;;;;;;;;;;;;;;;5085053;28;20423;-47
2021/01/06 07:57:49;;;;;;;39.67;17.15;;;;;;;;;;5085256;28;20317;-50
2021/01/06 08:00:17;;;;;;;37.17;15.77;;;;;;;;;;5084223;28;20275;-45
2021/01/06 08:02:55;;;;;;;30.33;14.68;;;;;;;;;;5083916;28;20032;-47
2021/01/06 08:05:33;;;;;;;27.65;12.57;;;;;;;;;;5085394;28;20568;-50
2021/01/06 08:08:06;;;;;;;30.70;13.88;;;;;;;;;;5084238;28;20024;-45
2021/01/06 08:10:33;;;;;;;28.02;13.35;;;;;;;;;;5084526;28;20077;-48
2021/01/06 08:13:38;;;;;;;26.60;12.52;;;;;;;;;;5084572;28;20043;-46
2021/01/06 08:16:07;;;;;;;27.85;11.82;;;;;;;;;;5081742;28;20461;-47
2021/01/06 08:18:41;;;;;;;24.20;12.13;;;;;;;;;;5081522;28;20593;-47
2021/01/06 08:21:23;;;;;;;27.52;12.30;;;;;;;;;;5083405;28;20028;-49
2021/01/06 08:24:03;;;;;;;23.85;12.30;;;;;;;;;;5083277;28;20024;-49
2021/01/06 08:26:30;;;;;;;29.35;14.43;;;;;;;;;;5084301;28;20047;-46
2021/01/06 08:29:15;;;;;;;24.08;12.40;;;;;;;;;;5083828;28;20039;-49
2021/01/06 08:31:42;;;;;;;21.38;10.88;;;;;;;;;;5084242;28;20020;-50
2021/01/06 08:34:18;;;;;;;24.65;11.50;;;;;;;;;;5084185;28;20036;-48
2021/01/06 08:36:44;;;;;;;28.45;13.07;;;;;;;;;;5084038;28;20059;-47
2021/01/06 08:39:17;;;;;;;25.58;11.73;;;;;;;;;;5084149;28;20063;-47
2021/01/06 08:41:43;;;;;;;26.55;13.18;;;;;;;;;;5083747;28;20039;-50
2021/01/06 08:44:26;;;;;;;23.65;11.82;;;;;;;;;;5083981;28;20526;-46
2021/01/06 08:46:57;;;;;;;22.25;11.57;;;;;;;;;;5084539;28;20074;-47
2021/01/06 08:49:25;;;;;;;23.90;10.98;;;;;;;;;;5084756;28;20596;-47
2021/01/06 08:51:55;;;;;;;22.55;11.07;;;;;;;;;;5084490;28;20518;-50
2021/01/06 08:54:30;;;;;;;25.25;11.85;;;;;;;;;;5084706;28;20028;-49
2021/01/06 08:57:19;;;;;;;20.67;10.88;;;;;;;;;;5083167;28;20028;-49
2021/01/06 08:59:45;;;;;;;22.38;11.13;;;;;;;;;;5080108;28;20031;-47
2021/01/06 09:02:15;;;;;;;20.60;10.35;;;;;;;;;;5084961;28;20552;-46
2021/01/06 09:04:43;;;;;;;18.90;9.27;;;;;;;;;;5084952;28;20492;-50
2021/01/06 09:07:26;;;;;;;17.40;8.60;;;;;;;;;;5074374;28;20078;-48
2021/01/06 09:10:11;;;;;;;17.42;8.48;;;;;;;;;;5073061;28;20452;-48
2021/01/06 09:12:47;;;;;;;17.63;8.88;;;;;;;;;;5080788;28;20074;-47
2021/01/06 09:15:22;;;;;;;18.85;9.25;;;;;;;;;;5083568;28;20036;-46
2021/01/06 09:18:14;;;;;;;17.45;8.05;;;;;;;;;;5083506;28;20032;-45
2021/01/06 09:20:59;;;;;;;16.60;8.10;;;;;;;;;;5078945;28;20059;-46
2021/01/06 09:23:26;;;;;;;18.42;9.02;;;;;;;;;;5083121;28;20098;-49
2021/01/06 09:25:52;;;;;;;19.23;9.95;;;;;;;;;;5083896;28;20596;-49
2021/01/06 09:28:19;;;;;;;18.88;9.73;;;;;;;;;;5081506;28;20020;-49
2021/01/06 09:30:46;;;;;;;26.92;12.30;;;;;;;;;;5082985;28;20107;-45
2021/01/06 09:33:15;;;;;;;20.27;10.20;;;;;;;;;;5082199;28;20080;-47
2021/01/06 09:35:42;;;;;;;22.63;11.25;;;;;;;;;;5085810;28;20055;-49
2021/01/06 09:38:21;;;;;;;23.05;11.27;;;;;;;;;;5086892;28;20509;-48
2021/01/06 09:40:47;;;;;;;20.17;9.77;;;;;;;;;;5086536;28;20087;-48
2021/01/06 09:43:20;;;;;;;23.63;11.32;;;;;;;;;;5086366;28;20110;-47
2021/01/06 09:45:47;;;;;;;27.33;12.38;;;;;;;;;;5086416;28;20036;-48
2021/01/06 09:48:14;;;;;;;24.52;10.80;;;;;;;;;;5086463;28;20028;-46
2021/01/06 09:50:47;;;;;;;22.73;10.13;;;;;;;;;;5085862;28;20410;-48
2021/01/06 09:53:16;;;;;;;21.60;10.90;;;;;;;;;;5086232;28;20032;-48
2021/01/06 09:55:46;;;;;;;29.65;12.60;;;;;;;;;;5086032;28;20031;-46
2021/01/06 09:58:18;;;;;;;46.50;18.25;;;;;;;;;;5086204;28;20111;-46
2021/01/06 10:00:56;;;;;;;44.67;16.60;;;;;;;;;;5084598;28;20032;-48
2021/01/06 10:03:27;;;;;;;36.10;15.40;;;;;;;;;;5086342;28;20473;-46
2021/01/06 10:06:17;;;;;;;33.35;14.30;;;;;;;;;;5086272;28;20028;-51
2021/01/06 10:08:56;;;;;;;29.88;13.20;;;;;;;;;;5081361;28;20730;-47
2021/01/06 10:11:41;;;;;;;32.60;13.35;;;;;;;;;;5077943;28;20024;-47
2021/01/06 10:14:30;;;;;;;41.38;16.23;;;;;;;;;;5086475;28;20024;-50
2021/01/06 10:16:58;;;;;;;31.10;12.88;;;;;;;;;;5085670;28;20032;-50
2021/01/06 10:19:24;;;;;;;27.60;12.00;;;;;;;;;;5084167;28;20031;-51
2021/01/06 10:21:55;;;;;;;26.05;11.23;;;;;;;;;;5086902;28;20081;-46
2021/01/06 10:24:41;;;;;;;22.05;9.35;;;;;;;;;;5084917;28;20027;-49
2021/01/06 10:27:25;;;;;;;18.55;9.40;;;;;;;;;;5086161;28;20596;-50
2021/01/06 10:29:53;;;;;;;18.15;8.35;;;;;;;;;;5087111;28;20024;-48
2021/01/06 10:32:38;;;;;;;15.60;8.02;;;;;;;;;;5087229;28;20062;-49
2021/01/06 10:35:26;;;;;;;18.10;8.95;;;;;;;;;;5087700;28;20078;-50
2021/01/06 10:37:52;;;;;;;16.23;7.60;;;;;;;;;;5086491;28;20012;-49
2021/01/06 10:40:24;;;;;;;15.32;7.50;;;;;;;;;;5085931;28;20127;-48
2021/01/06 10:42:51;;;;;;;17.90;8.70;;;;;;;;;;5086118;28;20032;-49
2021/01/06 10:45:29;;;;;;;18.67;9.02;;;;;;;;;;5085351;28;20020;-50
2021/01/06 10:47:56;;;;;;;19.80;9.50;;;;;;;;;;5085901;28;20028;-47
2021/01/06 10:50:26;;;;;;;27.45;11.00;;;;;;;;;;5086450;28;20035;-49
2021/01/06 10:53:11;;;;;;;21.80;10.10;;;;;;;;;;5086309;28;20031;-47
2021/01/06 10:55:37;;;;;;;21.20;9.10;;;;;;;;;;5085284;28;20498;-49
2021/01/06 10:58:10;;;;;;;17.95;9.25;;;;;;;;;;5085417;28;20055;-46
2021/01/06 11:00:56;;;;;;;18.02;8.55;;;;;;;;;;5083916;28;20409;-47
2021/01/06 11:03:37;;;;;;;16.88;8.35;;;;;;;;;;5084229;28;20458;-46
2021/01/06 11:06:12;;;;;;;20.27;9.27;;;;;;;;;;5085163;28;20024;-49
2021/01/06 11:08:58;;;;;;;16.00;7.88;;;;;;;;;;5085213;28;20022;-48
2021/01/06 11:11:38;;;;;;;17.00;8.75;;;;;;;;;;5085897;28;20039;-50
2021/01/06 11:14:07;;;;;;;18.73;8.32;;;;;;;;;;5085211;28;20020;-48
2021/01/06 11:16:41;;;;;;;15.40;8.00;;;;;;;;;;5085425;28;20440;-48
2021/01/06 11:19:28;;;;;;;16.77;8.50;;;;;;;;;;5085294;28;20024;-47
2021/01/06 11:22:13;;;;;;;18.77;9.25;;;;;;;;;;5084682;28;20047;-49
2021/01/06 11:24:50;;;;;;;18.83;9.82;;;;;;;;;;5084731;28;20092;-47
2021/01/06 11:27:34;;;;;;;19.92;9.55;;;;;;;;;;5085043;28;20048;-48
2021/01/06 11:30:12;;;;;;;24.58;10.73;;;;;;;;;;5084686;28;20430;-48
2021/01/06 11:32:39;;;;;;;34.30;13.27;;;;;;;;;;5084732;28;20036;-46
2021/01/06 11:35:14;;;;;;;33.92;14.38;;;;;;;;;;5084774;28;20030;-49
2021/01/06 11:37:40;;;;;;;32.83;13.85;;;;;;;;;;5084717;28;20024;-47
2021/01/06 11:40:26;;;;;;;33.70;14.00;;;;;;;;;;5085332;28;20023;-49
2021/01/06 11:43:11;;;;;;;33.83;13.50;;;;;;;;;;5084529;28;20097;-47
2021/01/06 11:45:46;;;;;;;31.25;12.20;;;;;;;;;;5084349;28;20062;-47
2021/01/06 11:48:26;;;;;;;32.05;12.80;;;;;;;;;;5084446;28;20245;-48
2021/01/06 11:50:52;;;;;;;31.73;12.52;;;;;;;;;;5085197;28;20114;-46
2021/01/06 11:53:29;;;;;;;25.10;10.35;;;;;;;;;;5084806;28;20063;-47
2021/01/06 11:56:03;;;;;;;27.13;10.93;;;;;;;;;;5084952;28;20598;-48
2021/01/06 11:58:31;;;;;;;30.20;12.73;;;;;;;;;;5084524;28;20142;-48
2021/01/06 12:01:10;;;;;;;28.15;12.15;;;;;;;;;;5084215;28;20123;-48
2021/01/06 12:03:39;;;;;;;26.00;11.65;;;;;;;;;;5083554;28;20402;-47
2021/01/06 12:06:23;;;;;;;24.40;10.98;;;;;;;;;;5084621;28;20107;-50
2021/01/06 12:08:50;;;;;;;25.98;10.57;;;;;;;;;;5084390;28;20023;-50
2021/01/06 12:11:27;;;;;;;24.23;11.30;;;;;;;;;;5084130;28;20051;-46
2021/01/06 12:14:02;;;;;;;26.50;12.63;;;;;;;;;;5084435;28;20383;-49
2021/01/06 12:16:39;;;;;;;29.52;11.93;;;;;;;;;;5084700;28;20101;-47
2021/01/06 12:19:08;;;;;;;27.60;11.55;;;;;;;;;;5084466;28;20576;-47
2021/01/06 12:21:34;;;;;;;38.75;15.00;;;;;;;;;;5084014;28;20024;-48
2021/01/06 12:24:24;;;;;;;40.30;15.15;;;;;;;;;;5083765;28;20235;-48
2021/01/06 12:26:56;;;;;;;31.95;13.90;;;;;;;;;;5083720;28;20020;-46
2021/01/06 12:29:24;;;;;;;34.58;13.45;;;;;;;;;;5085165;28;20052;-47
2021/01/06 12:32:01;;;;;;;42.05;15.25;;;;;;;;;;5083948;28;20024;-50
2021/01/06 12:34:35;;;;;;;46.08;16.98;;;;;;;;;;5084199;28;20028;-48
2021/01/06 12:37:06;;;;;;;34.88;14.05;;;;;;;;;;5084623;28;20024;-48
2021/01/06 12:39:35;;;;;;;33.78;13.60;;;;;;;;;;5084058;28;20210;-50
2021/01/06 12:42:14;;;;;;;29.30;12.50;;;;;;;;;;5083774;28;20121;-48
2021/01/06 12:44:46;;;;;;;28.48;12.65;;;;;;;;;;5083555;28;20490;-48
2021/01/06 12:47:25;;;;;;;26.00;10.57;;;;;;;;;;5083780;28;20032;-48
2021/01/06 12:49:56;;;;;;;22.17;10.18;;;;;;;;;;5084050;28;20104;-46
2021/01/06 12:52:34;;;;;;;19.30;9.98;;;;;;;;;;5082963;28;20031;-50
2021/01/06 12:55:06;;;;;;;20.35;10.52;;;;;;;;;;5083736;28;20031;-47
2021/01/06 12:57:43;;;;;;;18.23;8.48;;;;;;;;;;5083475;28;20035;-46
2021/01/06 13:00:32;;;;;;;16.67;9.00;;;;;;;;;;5083652;28;20406;-47
2021/01/06 13:03:16;;;;;;;18.38;9.13;;;;;;;;;;5081661;28;20039;-48
2021/01/06 13:05:49;;;;;;;17.67;9.55;;;;;;;;;;5083429;28;20491;-47
2021/01/06 13:08:23;;;;;;;16.45;8.05;;;;;;;;;;5083708;28;20020;-46
2021/01/06 13:10:49;;;;;;;18.08;8.90;;;;;;;;;;5087212;28;20117;-47
2021/01/06 13:13:18;;;;;;;16.80;8.40;;;;;;;;;;5087768;28;20051;-49
2021/01/06 13:15:53;;;;;;;17.67;8.63;;;;;;;;;;5086006;28;20586;-47
2021/01/06 13:18:34;;;;;;;17.08;8.13;;;;;;;;;;5087483;28;20498;-46
2021/01/06 13:21:05;;;;;;;14.93;8.15;;;;;;;;;;5087228;28;20028;-49
2021/01/06 13:23:39;;;;;;;15.25;7.93;;;;;;;;;;5087375;28;20047;-48
2021/01/06 13:26:17;;;;;;;14.90;8.18;;;;;;;;;;5086276;28;20054;-46
2021/01/06 13:29:12;;;;;;;18.02;8.73;;;;;;;;;;5086145;28;20074;-48
2021/01/06 13:31:44;;;;;;;16.73;8.60;;;;;;;;;;5085697;28;20044;-47
2021/01/06 13:34:28;;;;;;;20.58;9.88;;;;;;;;;;5086959;28;20405;-49
2021/01/06 13:37:05;;;;;;;22.23;10.10;;;;;;;;;;5088450;28;20111;-48
2021/01/06 13:39:36;;;;;;;17.90;9.07;;;;;;;;;;5088332;28;20055;-48
2021/01/06 13:42:16;;;;;;;18.27;9.32;;;;;;;;;;5088112;28;20067;-51
2021/01/06 13:44:46;;;;;;;18.60;7.85;;;;;;;;;;5088090;28;20020;-45
2021/01/06 13:47:17;;;;;;;20.33;9.05;;;;;;;;;;5088659;28;20099;-47
2021/01/06 13:50:02;;;;;;;20.35;9.05;;;;;;;;;;5074502;28;20102;-47
2021/01/06 13:52:51;;;;;;;21.60;9.35;;;;;;;;;;5079119;28;20032;-50
2021/01/06 13:55:17;;;;;;;34.17;14.35;;;;;;;;;;5087272;28;20051;-46
2021/01/06 13:57:59;;;;;;;29.27;13.20;;;;;;;;;;5087618;28;20505;-47
2021/01/06 14:00:38;;;;;;;27.35;13.05;;;;;;;;;;5083778;28;20059;-47
2021/01/06 14:03:23;;;;;;;22.15;10.80;;;;;;;;;;5073119;28;20387;-48
2021/01/06 14:06:09;;;;;;;27.92;13.20;;;;;;;;;;5077203;28;20055;-48
2021/01/06 14:08:54;;;;;;;26.80;11.75;;;;;;;;;;5079926;28;20036;-49
2021/01/06 14:11:43;;;;;;;23.25;11.00;;;;;;;;;;5085755;28;20035;-48
2021/01/06 14:14:24;;;;;;;26.20;12.57;;;;;;;;;;5085261;28;20039;-50
2021/01/06 14:16:54;;;;;;;28.20;13.07;;;;;;;;;;5085835;28;20043;-49
2021/01/06 14:19:47;;;;;;;29.75;13.70;;;;;;;;;;5086007;28;20251;-49
2021/01/06 14:22:33;;;;;;;25.63;12.52;;;;;;;;;;5084852;28;20039;-50
2021/01/06 14:24:59;;;;;;;25.98;11.75;;;;;;;;;;5084914;28;20367;-50
2021/01/06 14:27:35;;;;;;;23.17;11.32;;;;;;;;;;5069744;28;20039;-49
2021/01/06 14:30:05;;;;;;;21.20;10.43;;;;;;;;;;5065274;28;20031;-47
2021/01/06 14:32:55;;;;;;;19.50;9.45;;;;;;;;;;5065275;28;20052;-50
2021/01/06 14:35:23;;;;;;;19.63;9.38;;;;;;;;;;5063957;28;20037;-50
2021/01/06 14:37:58;;;;;;;26.48;9.48;;;;;;;;;;5072342;28;20422;-46
2021/01/06 14:40:30;;;;;;;20.13;9.90;;;;;;;;;;5085881;28;20082;-52
2021/01/06 14:42:59;;;;;;;20.73;10.38;;;;;;;;;;5085725;28;20063;-51
2021/01/06 14:45:44;;;;;;;21.42;10.30;;;;;;;;;;5086062;28;20406;-49
2021/01/06 14:48:12;;;;;;;17.48;9.05;;;;;;;;;;5085456;28;20465;-48
2021/01/06 14:50:42;;;;;;;18.98;9.55;;;;;;;;;;5084993;28;20028;-47
2021/01/06 14:53:17;;;;;;;20.75;10.10;;;;;;;;;;5085291;28;20097;-51
2021/01/06 14:55:58;;;;;;;17.25;8.90;;;;;;;;;;5075936;28;20028;-48